createdAt,value
2019-02-10T00:01:43.397Z,43.74
2019-02-10T00:07:38.419Z,43.96
2019-02-10T00:13:33.405Z,43.48
2019-02-10T00:19:28.425Z,41.17
2019-02-10T00:25:23.431Z,40.25
2019-02-10T00:31:18.430Z,39.26
2019-02-10T00:37:13.467Z,42.68
2019-02-10T00:43:08.540Z,41.14
2019-02-10T00:49:03.456Z,42.03
2019-02-10T00:54:58.463Z,42.72
2019-02-10T01:00:53.457Z,43.45
2019-02-10T01:06:48.450Z,40.44
2019-02-10T01:12:43.538Z,40.29
2019-02-10T01:18:38.516Z,41.5
2019-02-10T01:24:33.475Z,35.49
2019-02-10T01:30:28.526Z,36.16
2019-02-10T01:36:23.500Z,36.35
2019-02-10T01:42:18.488Z,36.43
2019-02-10T01:48:13.508Z,35.17
2019-02-10T01:54:08.510Z,37.35
2019-02-10T02:00:03.502Z,41.77
2019-02-10T02:05:58.528Z,40.42
2019-02-10T02:11:53.537Z,37.09
2019-02-10T02:17:48.563Z,38.36
2019-02-10T02:23:43.570Z,39.68
2019-02-10T02:29:38.516Z,41.33
2019-02-10T02:35:33.555Z,40.09
2019-02-10T02:41:28.625Z,43.15
2019-02-10T02:47:23.542Z,43.73
2019-02-10T02:53:18.591Z,41.8
2019-02-10T02:59:13.562Z,40.73
2019-02-10T03:05:08.570Z,43.22
2019-02-10T03:11:03.563Z,41.73
2019-02-10T03:16:58.596Z,42.63
2019-02-10T03:22:53.577Z,42.36
2019-02-10T03:28:48.598Z,40.12
2019-02-10T03:34:43.578Z,41.29
2019-02-10T03:40:38.589Z,39.54
2019-02-10T03:46:33.643Z,40.14
2019-02-10T03:52:28.597Z,38
2019-02-10T03:58:23.671Z,37.91
2019-02-10T04:04:18.630Z,38.61
2019-02-10T04:10:13.700Z,39.36
2019-02-10T04:16:08.615Z,38.93
2019-02-10T04:22:03.634Z,39.8
2019-02-10T04:27:58.639Z,39.61
2019-02-10T04:33:53.646Z,39.84
2019-02-10T04:39:48.634Z,39.94
2019-02-10T04:45:43.698Z,40.1
2019-02-10T04:51:38.676Z,38.52
2019-02-10T04:57:33.686Z,38.79
2019-02-10T05:03:28.660Z,38.49
2019-02-10T05:09:23.685Z,36.63
2019-02-10T05:15:18.674Z,37.58
2019-02-10T05:21:13.681Z,35.76
2019-02-10T05:27:08.716Z,34.44
2019-02-10T05:33:03.678Z,35.44
2019-02-10T05:38:58.676Z,37.16
2019-02-10T05:44:53.735Z,37.37
2019-02-10T05:50:48.719Z,35.9
2019-02-10T05:56:43.713Z,36.11
2019-02-10T06:02:38.711Z,36.89
2019-02-10T06:08:33.709Z,40.61
2019-02-10T06:14:28.727Z,41.89
2019-02-10T06:20:23.740Z,42.01
2019-02-10T06:26:18.744Z,43.17
2019-02-10T06:32:13.739Z,47.08
2019-02-10T06:38:08.745Z,44.54
2019-02-10T06:44:03.751Z,43.02
2019-02-10T06:49:58.786Z,40.67
2019-02-10T06:55:53.744Z,34.27
2019-02-10T07:01:48.751Z,35.87
2019-02-10T07:07:43.768Z,32.44
2019-02-10T07:13:38.786Z,31.99
2019-02-10T07:19:33.762Z,31.84
2019-02-10T07:25:28.781Z,28.99
2019-02-10T07:31:23.793Z,26.41
2019-02-10T07:37:18.813Z,24.5
2019-02-10T07:43:13.803Z,26.69
2019-02-10T07:49:08.827Z,31.91
2019-02-10T07:55:03.831Z,31.22
2019-02-10T08:00:58.817Z,34.77
2019-02-10T08:06:53.858Z,42.21
2019-02-10T08:12:48.807Z,39.9
2019-02-10T08:18:43.847Z,39.83
2019-02-10T08:24:38.807Z,40.97
2019-02-10T08:30:33.808Z,39.27
2019-02-10T08:36:28.820Z,38.43
2019-02-10T08:42:23.856Z,38.32
2019-02-10T08:48:18.832Z,37.19
2019-02-10T08:54:13.871Z,36.75
2019-02-10T09:00:08.946Z,35.77
2019-02-10T09:06:03.839Z,35.47
2019-02-10T09:11:58.856Z,35.79
2019-02-10T09:17:53.924Z,39.48
2019-02-10T09:23:48.898Z,38.96
2019-02-10T09:29:43.889Z,36.59
2019-02-10T09:35:38.891Z,34.98
2019-02-10T09:41:33.907Z,36.67
2019-02-10T09:47:28.893Z,37.12
2019-02-10T09:53:23.916Z,36.11
2019-02-10T09:59:18.926Z,35.43
2019-02-10T10:05:13.968Z,31.98
2019-02-10T10:11:08.917Z,31.6
2019-02-10T10:17:03.908Z,32.07
2019-02-10T10:22:58.994Z,29.5
2019-02-10T10:28:53.924Z,27.04
2019-02-10T10:34:48.930Z,29.28
2019-02-10T10:40:43.934Z,25.53
2019-02-10T10:46:38.967Z,21.66
2019-02-10T10:52:33.970Z,21.73
2019-02-10T10:58:28.948Z,17.52
2019-02-10T11:04:23.970Z,16.6
2019-02-10T11:10:18.981Z,14.56
2019-02-10T11:16:13.957Z,12.61
2019-02-10T11:22:08.970Z,12.25
2019-02-10T11:28:03.979Z,11.48
2019-02-10T11:33:59.016Z,12.65
2019-02-10T11:39:54.020Z,13.1
2019-02-10T11:45:49.011Z,14.55
2019-02-10T11:51:44.029Z,18.83
2019-02-10T11:57:39.008Z,18.88
2019-02-10T12:03:34.014Z,17.59
2019-02-10T12:09:29.018Z,18.27
2019-02-10T12:15:24.026Z,18.63
2019-02-10T12:21:19.023Z,16.81
2019-02-10T12:27:14.115Z,16.27
2019-02-10T12:33:09.047Z,18.02
2019-02-10T12:39:04.074Z,14.34
2019-02-10T12:44:59.040Z,15.89
2019-02-10T12:50:54.055Z,16.82
2019-02-10T12:56:49.061Z,16.04
2019-02-10T13:02:44.113Z,15.59
2019-02-10T13:08:39.085Z,14.72
2019-02-10T13:14:34.128Z,12.99
2019-02-10T13:20:29.110Z,11.62
2019-02-10T13:26:24.095Z,10.22
2019-02-10T13:32:19.091Z,9.3
2019-02-10T13:38:14.115Z,9.57
2019-02-10T13:44:09.116Z,10.12
2019-02-10T13:50:04.122Z,11.42
2019-02-10T13:55:59.114Z,11.02
2019-02-10T14:01:54.215Z,12.27
2019-02-10T14:07:50.773Z,11.33
2019-02-10T14:13:44.159Z,11.37
2019-02-10T14:19:39.158Z,9.75
2019-02-10T14:25:34.148Z,9.31
2019-02-10T14:31:29.187Z,5.85
2019-02-10T14:37:24.132Z,4.5
2019-02-10T14:43:19.172Z,4.7
2019-02-10T14:49:14.165Z,5.39
2019-02-10T14:55:09.176Z,4.21
2019-02-10T15:01:04.177Z,4.56
2019-02-10T15:06:59.182Z,4.93
2019-02-10T15:12:54.180Z,5.19
2019-02-10T15:18:49.201Z,4.5
2019-02-10T15:24:44.183Z,5.24
2019-02-10T15:30:39.247Z,4.26
2019-02-10T15:36:34.226Z,4.42
2019-02-10T15:42:29.212Z,4.94
2019-02-10T15:48:24.289Z,4.63
2019-02-10T15:54:19.236Z,4.56
2019-02-10T16:00:14.241Z,4.71
2019-02-10T16:06:09.241Z,4.53
2019-02-10T16:12:04.255Z,4.67
2019-02-10T16:17:59.276Z,5.39
2019-02-10T16:23:54.268Z,4.66
2019-02-10T16:29:49.248Z,3.91
2019-02-10T16:35:44.258Z,4.03
2019-02-10T16:41:39.293Z,4.45
2019-02-10T16:47:34.311Z,5.76
2019-02-10T16:53:29.264Z,4.46
2019-02-10T16:59:24.268Z,4.9
2019-02-10T17:05:19.264Z,5.59
2019-02-10T17:11:14.567Z,5.09
2019-02-10T17:17:09.329Z,4.68
2019-02-10T17:23:04.290Z,5.2
2019-02-10T17:28:59.347Z,4.62
2019-02-10T17:34:54.342Z,5.33
2019-02-10T17:40:49.295Z,5.75
2019-02-10T17:46:44.322Z,5.72
2019-02-10T17:52:39.353Z,6.29
2019-02-10T17:58:34.385Z,5.84
2019-02-10T18:04:37.201Z,6.12
2019-02-10T18:10:24.333Z,5.03
2019-02-10T18:16:19.346Z,5.47
2019-02-10T18:22:14.357Z,6.1
2019-02-10T18:28:09.375Z,7.72
2019-02-10T18:34:04.363Z,7.48
2019-02-10T18:39:59.359Z,7.29
2019-02-10T18:45:54.369Z,6.74
2019-02-10T18:51:49.400Z,6.69
2019-02-10T18:57:44.373Z,6.37
2019-02-10T19:03:39.421Z,5.8
2019-02-10T19:09:34.430Z,6.34
2019-02-10T19:15:29.406Z,6.52
2019-02-10T19:21:24.408Z,5.83
2019-02-10T19:27:19.439Z,6.4
2019-02-10T19:33:14.435Z,5.39
2019-02-10T19:39:09.441Z,6.76
2019-02-10T19:45:04.405Z,5.25
2019-02-10T19:50:59.454Z,5.23
2019-02-10T19:56:54.455Z,5.33
2019-02-10T20:02:49.429Z,5.11
2019-02-10T20:08:44.461Z,5.23
2019-02-10T20:14:39.472Z,5.79
2019-02-10T20:20:34.441Z,5.3
2019-02-10T20:26:29.499Z,5.49
2019-02-10T20:32:24.522Z,4.24
2019-02-10T20:38:19.462Z,4.75
2019-02-10T20:44:14.460Z,4.98
2019-02-10T20:50:09.509Z,4.58
2019-02-10T20:56:04.475Z,4.76
2019-02-10T21:01:59.488Z,4.49
2019-02-10T21:07:54.503Z,4.55
2019-02-10T21:13:49.537Z,3.53
2019-02-10T21:19:44.504Z,4.83
2019-02-10T21:25:39.540Z,3.47
2019-02-10T21:31:34.508Z,4.13
2019-02-10T21:37:29.523Z,4.03
2019-02-10T21:43:24.595Z,3.79
2019-02-10T21:49:19.517Z,4.37
2019-02-10T21:55:14.510Z,3.6
2019-02-10T22:01:09.541Z,4.07
2019-02-10T22:07:04.534Z,4.09
2019-02-10T22:12:59.565Z,4.02
2019-02-10T22:18:54.555Z,4.16
2019-02-10T22:24:49.548Z,4.43
2019-02-10T22:30:44.558Z,4.6
2019-02-10T22:36:39.548Z,4.57
2019-02-10T22:42:34.604Z,4.61
2019-02-10T22:48:29.574Z,4.81
2019-02-10T22:54:24.617Z,4.6
2019-02-10T23:00:19.590Z,4.87
2019-02-10T23:06:14.591Z,4.96
2019-02-10T23:12:09.574Z,5.1
2019-02-10T23:18:04.587Z,4.75
2019-02-10T23:23:59.604Z,4.92
2019-02-10T23:29:54.619Z,5.37
2019-02-10T23:35:49.596Z,5.59
2019-02-10T23:41:44.632Z,5.34
2019-02-10T23:47:39.677Z,5.85
2019-02-10T23:53:34.635Z,6.37
2019-02-10T23:59:29.628Z,5.95
